Flight Track Log - Related Links

Times and Time Zones

All times are in EDT time to prevent confusion due to time zone crossing. See the JA-01AN flight status page for this flight to view local times or setup timezone preferences in your user account.

Time Position Orientation Groundspeed Altitude Reporting Facility
EDT Latitude Longitude Course Direction KTS MPH feet Rate Location/Type
Sat 01:31:00 AM 31.8901 132.1390 225° Southwest  Level Estimated
Sat 01:32:00 AM 31.8042 132.0385 225° Southwest  Level Estimated
Sat 01:33:00 AM 31.7183 131.9382 225° Southwest  Level Estimated
Sat 01:34:00 AM 31.6323 131.8381 225° Southwest  Level Estimated
Sat 01:35:00 AM 31.5462 131.7382 225° Southwest  Level Estimated
Sat 01:36:00 AM 31.4600 131.6385 225° Southwest  Level Estimated
Sat 01:37:00 AM 31.3737 131.5389 225° Southwest  Level Estimated
Sat 01:38:00 AM 31.2874 131.4395 224° Southwest  Level Estimated
Sat 01:39:00 AM 31.2010 131.3404 224° Southwest  Level Estimated
Sat 01:40:00 AM 31.1145 131.2414 224° Southwest  Level Estimated
Sat 01:41:00 AM 31.0280 131.1425 224° Southwest  Level Estimated
Sat 01:42:00 AM 30.9413 131.0439 224° Southwest  Level Estimated
Sat 01:43:00 AM 30.8546 130.9454 224° Southwest  Level Estimated
Sat 01:44:00 AM 30.7678 130.8471 224° Southwest  Level Estimated
Sat 01:45:00 AM 30.6810 130.7490 224° Southwest  Level Estimated
Sat 01:46:00 AM 30.5940 130.6511 224° Southwest  Level Estimated
Sat 01:47:00 AM 30.5070 130.5533 224° Southwest  Level Estimated
Sat 01:48:00 AM 30.4200 130.4558 224° Southwest  Level Estimated
Sat 01:49:00 AM 30.3328 130.3584 224° Southwest  Level Estimated
Sat 01:50:00 AM 30.2456 130.2611 224° Southwest  Level Estimated
Sat 01:51:00 AM 30.1583 130.1640 224° Southwest  Level Estimated
Sat 01:52:00 AM 30.0709 130.0672 224° Southwest  Level Estimated
Sat 01:53:00 AM 29.9835 129.9704 224° Southwest  Level Estimated
Sat 01:54:00 AM 29.8960 129.8739 224° Southwest  Level Estimated
Sat 01:55:00 AM 29.8084 129.7775 224° Southwest  Level Estimated
Sat 01:56:00 AM 29.7208 129.6813 224° Southwest  Level Estimated
Sat 01:57:00 AM 29.6331 129.5853 224° Southwest  Level Estimated
Sat 01:58:00 AM 29.5453 129.4894 223° Southwest  Level Estimated
Sat 01:59:00 AM 29.4574 129.3937 223° Southwest  Level Estimated
Sat 02:00:00 AM 29.3695 129.2981 223° Southwest  Level Estimated
Sat 02:01:00 AM 29.2815 129.2027 223° Southwest  Level Estimated
Sat 02:02:00 AM 29.1935 129.1075 223° Southwest  Level Estimated
Sat 02:03:00 AM 29.1053 129.0125 223° Southwest  Level Estimated
Sat 02:04:00 AM 29.0171 128.9176 223° Southwest  Level Estimated
Sat 02:05:00 AM 28.9289 128.8229 223° Southwest  Level Estimated
Sat 02:06:00 AM 28.8406 128.7283 223° Southwest  Level Estimated
Sat 02:07:00 AM 28.7522 128.6339 223° Southwest  Level Estimated
Sat 02:08:00 AM 28.6637 128.5396 223° Southwest  Level Estimated
Sat 02:09:00 AM 28.5752 128.4455 223° Southwest  Level Estimated
Sat 02:10:00 AM 28.4866 128.3516 223° Southwest  Level Estimated
Sat 02:11:00 AM 28.3979 128.2578 223° Southwest  Level Estimated
Sat 02:12:00 AM 28.3092 128.1642 223° Southwest  Level Estimated
Sat 02:13:00 AM 28.2205 128.0708 223° Southwest  Level Estimated
Sat 02:14:00 AM 28.1316 127.9775 223° Southwest  Level Estimated
Sat 02:15:00 AM 28.0427 127.8843 223° Southwest  Level Estimated
Sat 02:16:00 AM 27.9538 127.7913 223° Southwest  Level Estimated
Sat 02:17:00 AM 27.8647 127.6985 223° Southwest  Level Estimated
Sat 02:18:00 AM 27.7756 127.6058 223° Southwest  Level Estimated
Sat 02:19:00 AM 27.6865 127.5133 223° Southwest  Level Estimated
Sat 02:20:00 AM 27.5973 127.4209 223° Southwest  Level Estimated
Sat 02:21:00 AM 27.5080 127.3286 222° Southwest  Level Estimated
Sat 02:22:00 AM 27.4186 127.2365 222° Southwest  Level Estimated
Sat 02:23:00 AM 27.3293 127.1446 222° Southwest  Level Estimated
Sat 02:24:00 AM 27.2398 127.0528 222° Southwest  Level Estimated
Sat 02:25:00 AM 27.1503 126.9612 222° Southwest  Level Estimated
Sat 02:26:00 AM 27.0607 126.8697 222° Southwest  Level Estimated
Sat 02:27:00 AM 26.9711 126.7783 222° Southwest  Level Estimated
Sat 02:28:00 AM 26.8814 126.6871 222° Southwest  Level Estimated
Sat 02:29:00 AM 26.7916 126.5961 222° Southwest  Level Estimated
Sat 02:30:00 AM 26.7018 126.5052 222° Southwest  Level Estimated
Sat 02:31:00 AM 26.6119 126.4144 222° Southwest  Level Estimated
Sat 02:32:00 AM 26.5220 126.3238 222° Southwest  Level Estimated
Sat 02:33:00 AM 26.4320 126.2333 222° Southwest  Level Estimated
Sat 02:34:00 AM 26.3420 126.1429 222° Southwest  Level Estimated
Sat 02:35:00 AM 26.2519 126.0527 222° Southwest  Level Estimated
Sat 02:36:00 AM 26.1617 125.9626 222° Southwest  Level Estimated
Sat 02:37:00 AM 26.0715 125.8727 222° Southwest  Level Estimated
Sat 02:38:00 AM 25.9813 125.7829 222° Southwest  Level Estimated
Sat 02:39:00 AM 25.8909 125.6933 222° Southwest  Level Estimated
Sat 02:40:00 AM 25.8006 125.6038 222° Southwest  Level Estimated
Sat 02:41:00 AM 25.7101 125.5144 222° Southwest  Level Estimated
Sat 02:42:00 AM 25.6196 125.4251 222° Southwest  Level Estimated
Sat 02:43:00 AM 25.5291 125.3360 222° Southwest  Level Estimated
Sat 02:44:00 AM 25.4385 125.2471 222° Southwest  Level Estimated
Sat 02:45:00 AM 25.3479 125.1582 222° Southwest  Level Estimated
Sat 02:46:00 AM 25.2572 125.0695 221° Southwest  Level Estimated
Sat 02:47:00 AM 25.1664 124.9810 221° Southwest  Level Estimated
Sat 02:48:00 AM 25.0756 124.8925 221° Southwest  Level Estimated
Sat 02:49:00 AM 24.9848 124.8042 221° Southwest  Level Estimated
Sat 02:50:00 AM 24.8939 124.7160 221° Southwest  Level Estimated
Sat 02:51:00 AM 24.8029 124.6280 221° Southwest  Level Estimated
Sat 02:52:00 AM 24.7119 124.5401 221° Southwest  Level Estimated
Sat 02:53:00 AM 24.6208 124.4523 221° Southwest  Level Estimated
Sat 02:54:00 AM 24.5297 124.3646 221° Southwest  Level Estimated
Sat 02:55:00 AM 24.4385 124.2771 221° Southwest  Level Estimated
Sat 02:56:00 AM 24.3473 124.1897 221° Southwest  Level Estimated
Sat 02:57:00 AM 24.2561 124.1023 41° Northeast  Level Estimated
Sat 02:58:00 AM 24.3473 124.1897 221° Southwest  Level Estimated
Sat 02:59:00 AM 24.2561 124.1023 41° Northeast  Level Estimated
Sat 03:00:00 AM 24.3473 124.1897 221° Southwest  Level Estimated
Sat 03:01:00 AM 24.2561 124.1023 41° Northeast  Level Estimated
Sat 03:02:00 AM 24.3473 124.1897 221° Southwest  Level Estimated
Sat 03:03:00 AM 24.2561 124.1023 41° Northeast  Level Estimated
Sat 03:04:00 AM 24.3473 124.1897 221° Southwest  Level Estimated
Sat 03:05:00 AM 24.2561 124.1023 41° Northeast  Level Estimated
Sat 03:06:00 AM 24.3473 124.1897 221° Southwest  Level Estimated
Sat 03:07:00 AM 24.2561 124.1023 41° Northeast  Level Estimated
Sat 03:08:00 AM 24.3473 124.1897 221° Southwest  Level Estimated
Sat 03:09:00 AM 24.2561 124.1023 41° Northeast  Level Estimated
Sat 03:10:00 AM 24.3473 124.1897 41° Northeast  Level Estimated

Login

Don't have an account? Register now (free) for customized features, flight alerts, and more!